createdAt,value
2019-06-20T00:02:16.193Z,7.23
2019-06-20T00:04:44.829Z,6.90
2019-06-20T00:07:13.515Z,7.30
2019-06-20T00:09:42.343Z,7.23
2019-06-20T00:12:11.095Z,6.67
2019-06-20T00:14:39.903Z,6.90
2019-06-20T00:17:08.727Z,6.80
2019-06-20T00:19:37.594Z,6.77
2019-06-20T00:22:06.349Z,6.80
2019-06-20T00:24:35.172Z,6.90
2019-06-20T00:27:03.990Z,6.93
2019-06-20T00:29:32.748Z,6.93
2019-06-20T00:32:01.629Z,6.45
2019-06-20T00:34:30.420Z,6.85
2019-06-20T00:36:59.240Z,7.10
2019-06-20T00:39:27.987Z,6.70
2019-06-20T00:41:56.809Z,7.03
2019-06-20T00:44:25.638Z,6.77
2019-06-20T00:46:54.390Z,6.83
2019-06-20T00:49:23.209Z,6.40
2019-06-20T00:51:52.028Z,6.80
2019-06-20T00:54:20.956Z,6.20
2019-06-20T00:56:49.775Z,6.20
2019-06-20T00:59:18.627Z,6.80
2019-06-20T01:01:47.608Z,6.60
2019-06-20T01:04:16.414Z,6.50
2019-06-20T01:06:45.239Z,6.78
2019-06-20T01:09:14.132Z,6.50
2019-06-20T01:11:43.079Z,7.40
2019-06-20T01:14:13.662Z,6.75
2019-06-20T01:16:42.429Z,6.65
2019-06-20T01:19:11.150Z,6.57
2019-06-20T01:21:39.971Z,6.43
2019-06-20T01:24:08.784Z,6.70
2019-06-20T01:26:37.615Z,6.80
2019-06-20T01:29:06.440Z,6.60
2019-06-20T01:31:35.339Z,6.70
2019-06-20T01:34:04.359Z,6.75
2019-06-20T01:36:33.176Z,6.85
2019-06-20T01:39:02.007Z,6.93
2019-06-20T01:41:30.837Z,6.47
2019-06-20T01:43:59.671Z,6.00
2019-06-20T01:46:28.582Z,6.08
2019-06-20T01:48:57.358Z,6.67
2019-06-20T01:51:26.097Z,5.77
2019-06-20T01:53:55.045Z,6.40
2019-06-20T01:56:23.776Z,5.45
2019-06-20T01:58:52.654Z,6.07
2019-06-20T02:01:21.541Z,6.80
2019-06-20T02:03:50.424Z,5.42
2019-06-20T02:06:19.179Z,6.60
2019-06-20T02:08:48.031Z,6.53
2019-06-20T02:11:16.856Z,5.77
2019-06-20T02:13:45.608Z,5.80
2019-06-20T02:16:14.638Z,5.37
2019-06-20T02:18:43.451Z,5.53
2019-06-20T02:21:12.310Z,5.50
2019-06-20T02:23:42.989Z,5.67
2019-06-20T02:26:11.725Z,5.42
2019-06-20T02:28:40.658Z,5.20
2019-06-20T02:31:09.489Z,5.60
2019-06-20T02:33:38.314Z,5.47
2019-06-20T02:36:08.263Z,5.63
2019-06-20T02:38:37.204Z,5.17
2019-06-20T02:41:06.102Z,5.20
2019-06-20T02:43:34.990Z,5.12
2019-06-20T02:46:04.120Z,5.22
2019-06-20T02:48:32.933Z,5.08
2019-06-20T02:51:02.662Z,5.73
2019-06-20T02:56:00.714Z,5.40
2019-06-20T02:58:29.393Z,5.47
2019-06-20T03:00:58.924Z,5.40
2019-06-20T03:03:28.833Z,6.00
2019-06-20T03:05:58.159Z,5.42
2019-06-20T03:08:27.195Z,5.60
2019-06-20T03:10:55.995Z,5.90
2019-06-20T03:13:24.840Z,5.90
2019-06-20T03:15:53.659Z,5.47
2019-06-20T03:18:22.519Z,5.53
2019-06-20T03:20:51.346Z,5.13
2019-06-20T03:23:20.185Z,5.83
2019-06-20T03:25:49.001Z,5.80
2019-06-20T03:28:17.906Z,5.10
2019-06-20T03:30:46.688Z,5.30
2019-06-20T03:33:15.713Z,5.10
2019-06-20T03:35:44.651Z,4.22
2019-06-20T03:38:13.532Z,4.40
2019-06-20T03:40:42.385Z,4.45
2019-06-20T03:43:11.315Z,4.12
2019-06-20T03:45:40.203Z,4.28
2019-06-20T03:48:09.100Z,4.15
2019-06-20T03:50:37.990Z,3.98
2019-06-20T03:53:06.828Z,3.58
2019-06-20T03:55:35.664Z,3.55
2019-06-20T03:58:04.608Z,3.40
2019-06-20T04:00:35.115Z,3.95
2019-06-20T04:03:04.844Z,3.60
2019-06-20T04:05:33.684Z,3.50
2019-06-20T04:08:02.603Z,3.67
2019-06-20T04:10:31.460Z,3.30
2019-06-20T04:13:00.350Z,3.55
2019-06-20T04:15:29.273Z,3.10
2019-06-20T04:17:58.097Z,3.42
2019-06-20T04:20:27.018Z,3.22
2019-06-20T04:22:57.690Z,4.05
2019-06-20T04:25:26.436Z,3.00
2019-06-20T04:27:55.259Z,3.45
2019-06-20T04:30:24.098Z,3.30
2019-06-20T04:32:52.941Z,3.37
2019-06-20T04:35:21.692Z,3.67
2019-06-20T04:37:50.506Z,3.20
2019-06-20T04:40:19.476Z,3.30
2019-06-20T04:42:48.295Z,3.95
2019-06-20T04:45:34.197Z,3.70
2019-06-20T04:47:52.279Z,3.40
2019-06-20T04:50:21.105Z,3.45
2019-06-20T04:52:50.855Z,3.83
2019-06-20T04:55:19.692Z,3.70
2019-06-20T04:57:48.529Z,3.50
2019-06-20T05:00:17.560Z,3.45
2019-06-20T05:02:46.418Z,3.60
2019-06-20T05:05:15.649Z,3.25
2019-06-20T05:10:14.118Z,3.35
2019-06-20T05:12:42.928Z,3.42
2019-06-20T05:15:12.945Z,3.62
2019-06-20T05:17:41.771Z,3.67
2019-06-20T05:20:11.054Z,3.30
2019-06-20T05:25:07.995Z,3.10
2019-06-20T05:27:36.821Z,3.37
2019-06-20T05:30:11.605Z,3.70
2019-06-20T05:32:40.504Z,3.40
2019-06-20T05:35:10.693Z,3.17
2019-06-20T05:37:39.544Z,3.83
2019-06-20T05:42:37.082Z,3.20
2019-06-20T05:45:07.825Z,3.60
2019-06-20T05:47:36.745Z,3.40
2019-06-20T05:50:09.762Z,3.42
2019-06-20T05:52:38.479Z,3.27
2019-06-20T05:55:07.795Z,3.55
2019-06-20T05:57:36.625Z,3.58
2019-06-20T06:00:09.409Z,3.42
2019-06-20T06:02:38.348Z,3.17
2019-06-20T06:07:35.671Z,3.30
2019-06-20T06:10:06.760Z,3.27
2019-06-20T06:12:36.329Z,3.50
2019-06-20T06:15:07.369Z,3.47
2019-06-20T06:17:36.424Z,3.47
2019-06-20T06:22:36.192Z,3.47
2019-06-20T06:25:06.598Z,3.67
2019-06-20T06:27:35.436Z,3.70
2019-06-20T06:30:07.200Z,4.28
2019-06-20T06:32:40.120Z,3.80
2019-06-20T06:35:08.263Z,4.00
2019-06-20T06:37:37.000Z,4.20
2019-06-20T06:40:08.401Z,4.25
2019-06-20T06:42:37.183Z,4.33
2019-06-20T06:45:08.768Z,4.28
2019-06-20T06:47:37.708Z,4.00
2019-06-20T06:50:08.024Z,4.25
2019-06-20T06:52:36.943Z,4.50
2019-06-20T06:55:06.663Z,4.40
2019-06-20T06:57:35.677Z,4.10
2019-06-20T07:00:12.620Z,4.00
2019-06-20T07:02:41.649Z,4.50
2019-06-20T07:05:11.727Z,4.12
2019-06-20T07:07:41.765Z,4.12
2019-06-20T07:10:10.931Z,4.50
2019-06-20T07:12:39.789Z,4.50
2019-06-20T07:15:10.121Z,4.58
2019-06-20T07:17:38.848Z,3.98
2019-06-20T07:20:08.503Z,3.95
2019-06-20T07:22:37.234Z,4.37
2019-06-20T07:25:09.631Z,4.50
2019-06-20T07:27:38.772Z,4.37
2019-06-20T07:30:10.002Z,4.50
2019-06-20T07:32:38.928Z,4.17
2019-06-20T07:35:08.968Z,4.05
2019-06-20T07:37:37.780Z,4.17
2019-06-20T07:40:07.297Z,4.35
2019-06-20T07:42:36.380Z,3.72
2019-06-20T07:45:09.719Z,4.15
2019-06-20T07:47:38.573Z,3.60
2019-06-20T07:50:09.385Z,3.87
2019-06-20T07:52:38.238Z,3.67
2019-06-20T07:55:09.079Z,3.80
2019-06-20T07:57:38.078Z,3.83
2019-06-20T08:02:39.320Z,3.33
2019-06-20T08:05:08.461Z,3.60
2019-06-20T08:07:37.282Z,3.20
2019-06-20T08:12:38.411Z,3.10
2019-06-20T08:17:37.550Z,3.33
2019-06-20T08:20:07.907Z,3.20
2019-06-20T08:22:36.731Z,2.95
2019-06-20T08:27:49.970Z,3.12
2019-06-20T08:30:21.642Z,3.17
2019-06-20T08:32:50.905Z,3.55
2019-06-20T08:35:21.804Z,2.90
2019-06-20T08:37:51.031Z,3.20
2019-06-20T08:40:20.677Z,3.02
2019-06-20T08:42:49.531Z,3.30
2019-06-20T08:47:47.683Z,3.40
2019-06-20T08:50:16.825Z,3.10
2019-06-20T08:52:45.709Z,3.27
2019-06-20T08:57:44.422Z,2.92
2019-06-20T09:02:42.854Z,3.20
2019-06-20T09:05:12.272Z,3.60
2019-06-20T09:07:42.292Z,2.98
2019-06-20T09:10:12.309Z,3.70
2019-06-20T09:12:41.055Z,3.30
2019-06-20T09:15:10.375Z,3.70
2019-06-20T09:17:39.414Z,3.08
2019-06-20T09:20:09.931Z,3.95
2019-06-20T09:22:38.745Z,3.25
2019-06-20T09:25:08.860Z,3.90
2019-06-20T09:27:38.259Z,3.75
2019-06-20T09:30:08.374Z,3.65
2019-06-20T09:32:37.221Z,3.30
2019-06-20T09:35:07.741Z,3.65
2019-06-20T09:37:36.787Z,3.02
2019-06-20T09:40:06.608Z,3.90
2019-06-20T09:42:36.890Z,3.52
2019-06-20T09:45:10.463Z,3.70
2019-06-20T09:47:39.761Z,3.40
2019-06-20T09:50:10.927Z,2.95
2019-06-20T09:52:40.279Z,3.58
2019-06-20T09:55:10.870Z,3.40
2019-06-20T09:57:39.618Z,3.37
2019-06-20T10:00:13.831Z,3.30
2019-06-20T10:02:42.724Z,3.47
2019-06-20T10:05:11.939Z,3.60
2019-06-20T10:07:40.881Z,3.60
2019-06-20T10:10:12.002Z,3.47
2019-06-20T10:12:40.809Z,3.37
2019-06-20T10:15:24.231Z,3.42
2019-06-20T10:17:54.510Z,3.58
2019-06-20T10:20:24.409Z,3.70
2019-06-20T10:22:53.672Z,3.60
2019-06-20T10:27:51.382Z,4.05
2019-06-20T10:30:24.643Z,3.58
2019-06-20T10:32:55.136Z,3.70
2019-06-20T10:35:23.932Z,3.90
2019-06-20T10:37:53.066Z,3.65
2019-06-20T10:42:50.313Z,3.45
2019-06-20T10:45:21.525Z,3.47
2019-06-20T10:47:50.954Z,3.35
2019-06-20T10:50:20.689Z,3.70
2019-06-20T10:52:50.084Z,3.47
2019-06-20T10:55:19.411Z,3.37
2019-06-20T10:57:49.872Z,3.35
2019-06-20T11:00:30.317Z,3.62
2019-06-20T11:02:49.572Z,3.67
2019-06-20T11:05:19.385Z,3.95
2019-06-20T11:07:49.731Z,3.72
2019-06-20T11:10:19.519Z,4.10
2019-06-20T11:12:55.260Z,4.03
2019-06-20T11:15:20.718Z,3.62
2019-06-20T11:17:49.564Z,3.80
2019-06-20T11:20:18.711Z,4.47
2019-06-20T11:22:47.964Z,3.90
2019-06-20T11:27:47.764Z,3.95
2019-06-20T11:30:25.538Z,3.95
2019-06-20T11:32:56.212Z,3.90
2019-06-20T11:35:25.957Z,5.05
2019-06-20T11:37:54.810Z,4.05
2019-06-20T11:40:23.672Z,4.00
2019-06-20T11:42:52.762Z,3.50
2019-06-20T11:45:22.179Z,3.92
2019-06-20T11:47:50.916Z,3.83
2019-06-20T11:50:20.334Z,3.95
2019-06-20T11:52:49.143Z,3.80
2019-06-20T11:55:18.755Z,3.83
2019-06-20T11:57:47.518Z,4.30
2019-06-20T12:00:19.186Z,3.75
2019-06-20T12:02:48.343Z,4.28
2019-06-20T12:07:47.872Z,4.15
2019-06-20T12:10:17.674Z,4.28
2019-06-20T12:12:48.985Z,4.62
2019-06-20T12:15:18.093Z,4.20
2019-06-20T12:17:47.253Z,4.42
2019-06-20T12:25:15.912Z,4.33
2019-06-20T12:27:45.429Z,4.22
2019-06-20T12:30:19.215Z,4.40
2019-06-20T12:32:49.292Z,3.92
2019-06-20T12:35:20.450Z,4.00
2019-06-20T12:37:49.989Z,4.30
2019-06-20T12:40:20.617Z,4.35
2019-06-20T12:42:49.474Z,4.75
2019-06-20T12:45:18.872Z,4.50
2019-06-20T12:50:16.378Z,3.77
2019-06-20T12:52:45.760Z,4.10
2019-06-20T12:55:15.068Z,4.55
2019-06-20T12:57:44.325Z,4.20
2019-06-20T13:00:14.508Z,4.20
2019-06-20T13:02:43.752Z,4.35
2019-06-20T13:05:13.397Z,4.40
2019-06-20T13:07:44.265Z,4.50
2019-06-20T13:10:13.513Z,5.00
2019-06-20T13:12:42.753Z,4.50
2019-06-20T13:15:13.481Z,4.30
2019-06-20T13:20:12.416Z,3.92
2019-06-20T13:25:11.964Z,4.10
2019-06-20T13:27:41.042Z,4.50
2019-06-20T13:30:11.154Z,4.58
2019-06-20T13:32:41.727Z,4.55
2019-06-20T13:35:12.145Z,4.33
2019-06-20T13:37:42.057Z,4.28
2019-06-20T13:40:12.319Z,4.53
2019-06-20T13:42:42.672Z,4.87
2019-06-20T13:45:23.187Z,4.35
2019-06-20T13:47:52.433Z,4.08
2019-06-20T13:52:51.195Z,4.28
2019-06-20T13:55:19.949Z,4.45
2019-06-20T13:57:49.256Z,4.37
2019-06-20T14:00:20.442Z,4.10
2019-06-20T14:02:51.119Z,4.97
2019-06-20T14:05:20.380Z,4.33
2019-06-20T14:10:20.079Z,5.03
2019-06-20T14:12:49.647Z,4.80
2019-06-20T14:15:18.932Z,4.83
2019-06-20T14:20:17.775Z,4.75
2019-06-20T14:22:46.585Z,5.08
2019-06-20T14:25:15.544Z,4.30
2019-06-20T14:27:45.973Z,5.55
2019-06-20T14:30:15.248Z,4.72
2019-06-20T14:32:44.063Z,5.35
2019-06-20T14:35:13.217Z,5.75
2019-06-20T14:37:43.325Z,5.72
2019-06-20T14:40:12.829Z,5.85
2019-06-20T14:42:42.963Z,5.00
2019-06-20T14:45:12.291Z,5.83
2019-06-20T14:47:41.194Z,5.40
2019-06-20T14:50:10.726Z,5.50
2019-06-20T14:52:39.786Z,5.33
2019-06-20T14:55:09.243Z,5.78
2019-06-20T14:57:38.069Z,5.72
2019-06-20T15:00:08.200Z,5.67
2019-06-20T15:02:38.779Z,5.95
2019-06-20T15:05:15.329Z,5.90
2019-06-20T15:07:45.700Z,5.72
2019-06-20T15:10:15.743Z,5.83
2019-06-20T15:12:47.877Z,6.00
2019-06-20T15:15:15.587Z,6.03
2019-06-20T15:17:46.922Z,5.62
2019-06-20T15:20:15.181Z,5.95
2019-06-20T15:22:46.736Z,5.90
2019-06-20T15:25:14.874Z,5.78
2019-06-20T15:27:43.749Z,5.12
2019-06-20T15:30:13.925Z,5.92
2019-06-20T15:32:55.240Z,5.92
2019-06-20T15:35:13.209Z,5.47
2019-06-20T15:37:42.129Z,6.10
2019-06-20T15:40:11.074Z,5.72
2019-06-20T15:42:39.891Z,5.67
2019-06-20T15:45:10.216Z,5.90
2019-06-20T15:47:39.047Z,5.70
2019-06-20T15:50:08.977Z,6.33
2019-06-20T15:52:37.819Z,5.65
2019-06-20T15:55:08.599Z,5.58
2019-06-20T15:57:37.430Z,5.53
2019-06-20T16:00:08.289Z,5.58
2019-06-20T16:02:37.019Z,5.50
2019-06-20T16:05:07.541Z,5.35
2019-06-20T16:07:36.356Z,5.62
2019-06-20T16:10:09.736Z,5.72
2019-06-20T16:12:38.469Z,5.25
2019-06-20T16:15:11.386Z,5.72
2019-06-20T16:17:40.171Z,6.08
2019-06-20T16:20:10.103Z,5.95
2019-06-20T16:22:40.028Z,6.12
2019-06-20T16:25:09.234Z,5.47
2019-06-20T16:27:38.180Z,6.55
2019-06-20T16:30:08.388Z,5.78
2019-06-20T16:32:39.037Z,5.80
2019-06-20T16:35:08.801Z,5.70
2019-06-20T16:37:37.758Z,6.20
2019-06-20T16:40:08.785Z,6.20
2019-06-20T16:42:38.574Z,6.22
2019-06-20T16:45:09.324Z,5.60
2019-06-20T16:47:40.181Z,5.75
2019-06-20T16:50:09.591Z,6.03
2019-06-20T16:55:07.581Z,5.95
2019-06-20T16:57:36.412Z,6.28
2019-06-20T17:00:10.550Z,5.62
2019-06-20T17:02:39.383Z,6.65
2019-06-20T17:05:27.487Z,5.92
2019-06-20T17:07:56.492Z,6.65
2019-06-20T17:10:25.564Z,4.95
2019-06-20T17:12:54.319Z,5.87
2019-06-20T17:15:23.343Z,5.40
2019-06-20T17:17:52.210Z,6.45
2019-06-20T17:20:22.318Z,6.75
2019-06-20T17:22:51.174Z,6.85
2019-06-20T17:25:20.033Z,11.65
2019-06-20T17:27:49.943Z,13.08
2019-06-20T17:30:20.381Z,13.10
2019-06-20T17:32:49.236Z,13.60
2019-06-20T17:35:18.363Z,12.00
2019-06-20T17:37:47.212Z,10.05
2019-06-20T17:40:17.157Z,11.07
2019-06-20T17:42:45.979Z,9.90
2019-06-20T17:45:15.504Z,9.53
2019-06-20T17:47:44.250Z,10.20
2019-06-20T17:50:13.806Z,8.93
2019-06-20T17:52:42.562Z,9.35
2019-06-20T17:55:13.663Z,9.23
2019-06-20T17:57:42.429Z,10.00
2019-06-20T18:00:16.452Z,10.77
2019-06-20T18:02:47.110Z,11.50
2019-06-20T18:05:16.475Z,10.90
2019-06-20T18:07:45.266Z,10.20
2019-06-20T18:10:15.290Z,10.83
2019-06-20T18:12:44.178Z,10.85
2019-06-20T18:15:13.673Z,10.32
2019-06-20T18:17:42.508Z,11.55
2019-06-20T18:20:11.691Z,14.03
2019-06-20T18:22:40.541Z,12.80
2019-06-20T18:25:11.796Z,14.53
2019-06-20T18:27:40.507Z,13.30
2019-06-20T18:30:10.827Z,13.07
2019-06-20T18:32:41.539Z,11.70
2019-06-20T18:35:10.241Z,11.60
2019-06-20T18:37:39.141Z,11.38
2019-06-20T18:40:14.141Z,13.72
2019-06-20T18:42:44.516Z,11.40
2019-06-20T18:45:13.461Z,11.30
2019-06-20T18:47:42.383Z,11.97
2019-06-20T18:50:12.458Z,10.80
2019-06-20T18:52:51.752Z,9.60
2019-06-20T18:55:13.265Z,10.00
2019-06-20T18:57:42.131Z,9.40
2019-06-20T19:00:13.866Z,9.67
2019-06-20T19:02:42.691Z,11.00
2019-06-20T19:05:12.040Z,10.60
2019-06-20T19:07:40.953Z,10.78
2019-06-20T19:10:10.622Z,10.03
2019-06-20T19:15:29.392Z,11.10
2019-06-20T19:17:58.307Z,14.03
2019-06-20T19:20:31.387Z,14.40
2019-06-20T19:23:01.405Z,14.47
2019-06-20T19:25:32.863Z,12.53
2019-06-20T19:28:07.400Z,12.40
2019-06-20T19:30:50.644Z,12.50
2019-06-20T19:33:19.591Z,12.45
2019-06-20T19:35:49.672Z,12.00
2019-06-20T19:38:18.558Z,12.58
2019-06-20T19:40:49.305Z,12.57
2019-06-20T19:43:19.649Z,11.63
2019-06-20T19:46:11.617Z,10.13
2019-06-20T19:48:40.513Z,9.85
2019-06-20T19:51:09.335Z,10.17
2019-06-20T19:53:38.250Z,9.60
2019-06-20T19:56:15.779Z,9.20
2019-06-20T19:58:52.085Z,9.73
2019-06-20T20:01:22.098Z,10.45
2019-06-20T20:03:55.066Z,10.58
2019-06-20T20:06:24.617Z,11.10
2019-06-20T20:08:53.672Z,11.75
2019-06-20T20:11:28.875Z,8.23
2019-06-20T20:13:57.796Z,8.18
2019-06-20T20:16:26.695Z,8.90
2019-06-20T20:18:58.882Z,9.23
2019-06-20T20:21:29.876Z,11.08
2019-06-20T20:23:59.815Z,10.10
2019-06-20T20:26:30.480Z,9.23
2019-06-20T20:28:59.252Z,9.65
2019-06-20T20:31:28.076Z,10.10
2019-06-20T20:34:06.162Z,10.25
2019-06-20T20:36:36.824Z,15.85
2019-06-20T20:39:07.809Z,10.43
2019-06-20T20:41:38.450Z,10.08
2019-06-20T20:44:08.643Z,10.75
2019-06-20T20:46:37.509Z,10.78
2019-06-20T20:49:15.449Z,10.13
2019-06-20T20:51:45.419Z,9.70
2019-06-20T20:54:14.110Z,9.50
2019-06-20T20:56:42.936Z,10.05
2019-06-20T20:59:12.685Z,8.38
2019-06-20T21:01:43.170Z,8.60
2019-06-20T21:04:12.015Z,9.10
2019-06-20T21:06:40.848Z,8.73
2019-06-20T21:09:09.677Z,9.08
2019-06-20T21:11:38.443Z,8.77
2019-06-20T21:14:07.411Z,9.30
2019-06-20T21:16:36.153Z,8.00
2019-06-20T21:19:05.767Z,8.87
2019-06-20T21:21:34.663Z,8.18
2019-06-20T21:24:03.586Z,8.13
2019-06-20T21:26:45.261Z,8.40
2019-06-20T21:29:02.772Z,8.03
2019-06-20T21:31:31.550Z,8.53
2019-06-20T21:34:00.402Z,7.70
2019-06-20T21:36:29.229Z,8.05
2019-06-20T21:38:58.050Z,7.63
2019-06-20T21:41:26.911Z,7.73
2019-06-20T21:43:55.746Z,7.92
2019-06-20T21:46:24.626Z,7.87
2019-06-20T21:48:53.584Z,9.00
2019-06-20T21:51:22.372Z,8.25
2019-06-20T21:53:51.195Z,8.03
2019-06-20T21:56:20.077Z,9.53
2019-06-20T21:58:48.851Z,10.40
2019-06-20T22:01:18.586Z,10.17
2019-06-20T22:06:23.799Z,10.88
2019-06-20T22:08:45.802Z,10.90
2019-06-20T22:11:14.629Z,10.97
2019-06-20T22:13:45.144Z,12.88
2019-06-20T22:16:14.041Z,11.20
2019-06-20T22:18:42.791Z,11.38
2019-06-20T22:21:11.712Z,11.33
2019-06-20T22:23:40.474Z,11.33
2019-06-20T22:26:09.345Z,11.00
2019-06-20T22:28:38.000Z,11.37
2019-06-20T22:31:06.833Z,11.75
2019-06-20T22:33:37.507Z,11.65
2019-06-20T22:36:07.347Z,11.53
2019-06-20T22:38:36.145Z,10.72
2019-06-20T22:41:05.007Z,11.83
2019-06-20T22:43:33.832Z,11.50
2019-06-20T22:46:02.794Z,10.93
2019-06-20T22:48:31.616Z,11.55
2019-06-20T22:51:00.438Z,11.05
2019-06-20T22:53:29.393Z,10.90
2019-06-20T22:55:58.299Z,11.05
2019-06-20T22:58:27.108Z,10.67
2019-06-20T23:00:55.931Z,11.13
2019-06-20T23:03:24.787Z,11.13
2019-06-20T23:05:53.507Z,10.93
2019-06-20T23:08:22.261Z,10.70
2019-06-20T23:10:51.009Z,10.70
2019-06-20T23:13:19.941Z,10.18
2019-06-20T23:15:48.732Z,9.88
2019-06-20T23:18:17.615Z,9.60
2019-06-20T23:21:03.559Z,9.63
2019-06-20T23:23:16.964Z,9.30
2019-06-20T23:25:47.337Z,9.83
2019-06-20T23:28:16.249Z,9.55
2019-06-20T23:30:45.058Z,10.35
2019-06-20T23:33:13.825Z,10.67
2019-06-20T23:35:42.664Z,9.53
2019-06-20T23:38:11.513Z,9.63
2019-06-20T23:40:40.321Z,9.97
2019-06-20T23:43:09.183Z,10.00
2019-06-20T23:45:37.998Z,9.78
2019-06-20T23:48:06.776Z,10.37
2019-06-20T23:50:35.544Z,9.83
2019-06-20T23:53:22.175Z,9.60
2019-06-20T23:55:51.050Z,9.83
2019-06-20T23:58:19.795Z,10.38
